createdAt,value
2023-04-18T00:09:46.273Z,69.16
2023-04-18T00:19:51.705Z,69.46
2023-04-18T00:29:57.298Z,69.57
2023-04-18T00:40:02.816Z,69.78
2023-04-18T00:50:08.107Z,69.56
2023-04-18T01:00:13.850Z,69.59
2023-04-18T01:10:19.325Z,69.67
2023-04-18T01:20:24.164Z,69.82
2023-04-18T01:30:30.032Z,69.69
2023-04-18T01:40:35.509Z,69.88
2023-04-18T01:50:41.021Z,69.99
2023-04-18T02:00:46.276Z,69.91
2023-04-18T02:10:51.639Z,69.99
2023-04-18T02:20:58.059Z,70.03
2023-04-18T02:31:03.710Z,70.10
2023-04-18T02:41:09.057Z,70.01
2023-04-18T02:51:14.536Z,70.16
2023-04-18T03:01:19.862Z,70.07
2023-04-18T03:11:25.243Z,70.28
2023-04-18T03:21:31.165Z,70.33
2023-04-18T03:31:37.519Z,70.18
2023-04-18T03:41:43.914Z,70.35
2023-04-18T03:51:49.739Z,70.42
2023-04-18T04:01:55.595Z,70.45
2023-04-18T04:12:01.216Z,70.63
2023-04-18T04:22:07.008Z,70.79
2023-04-18T04:32:11.105Z,71.19
2023-04-18T04:42:15.887Z,74.80
2023-04-18T04:52:22.039Z,73.78
2023-04-18T05:02:26.354Z,77.74
2023-04-18T05:12:33.155Z,72.34
2023-04-18T05:22:39.570Z,70.33
2023-04-18T05:32:45.613Z,70.56
2023-04-18T05:42:51.031Z,70.60
2023-04-18T05:52:56.080Z,70.50
2023-04-18T06:03:02.153Z,70.33
2023-04-18T06:13:08.140Z,70.21
2023-04-18T06:23:13.652Z,70.24
2023-04-18T06:33:19.277Z,70.44
2023-04-18T06:43:24.983Z,70.38
2023-04-18T06:53:30.450Z,70.35
2023-04-18T07:03:36.025Z,70.29
2023-04-18T07:13:42.115Z,70.21
2023-04-18T07:23:47.499Z,70.23
2023-04-18T07:33:52.969Z,70.24
2023-04-18T07:43:58.821Z,69.97
2023-04-18T07:54:04.410Z,67.05
2023-04-18T08:04:10.446Z,66.73
2023-04-18T08:14:16.692Z,65.66
2023-04-18T08:24:22.736Z,64.15
2023-04-18T08:34:28.570Z,63.63
2023-04-18T08:44:34.250Z,63.25
2023-04-18T08:54:40.273Z,62.99
2023-04-18T09:04:45.894Z,62.77
2023-04-18T09:14:51.265Z,62.45
2023-04-18T09:24:58.461Z,62.32
2023-04-18T09:35:05.736Z,62.29
2023-04-18T09:45:12.942Z,62.33
2023-04-18T09:55:20.497Z,62.08
2023-04-18T10:05:27.747Z,62.01
2023-04-18T10:15:35.115Z,62.67
2023-04-18T10:25:42.544Z,64.51
2023-04-18T10:35:49.486Z,65.18
2023-04-18T10:45:56.203Z,65.61
2023-04-18T10:56:03.276Z,66.01
2023-04-18T11:06:10.694Z,66.10
2023-04-18T11:16:18.805Z,66.15
2023-04-18T11:26:25.604Z,66.19
2023-04-18T11:36:32.926Z,66.25
2023-04-18T11:46:39.504Z,66.42
2023-04-18T11:56:46.584Z,66.52
2023-04-18T12:06:53.788Z,66.57
2023-04-18T12:17:01.390Z,66.65
2023-04-18T12:27:08.548Z,66.76
2023-04-18T12:37:16.834Z,67.07
2023-04-18T12:47:23.703Z,67.24
2023-04-18T12:57:31.870Z,67.40
2023-04-18T13:07:40.416Z,67.56
2023-04-18T13:17:47.968Z,67.69
2023-04-18T13:27:55.343Z,67.73
2023-04-18T13:38:02.631Z,68.02
2023-04-18T13:48:09.697Z,67.88
2023-04-18T13:58:16.988Z,68.01
2023-04-18T14:08:24.207Z,68.16
2023-04-18T14:18:31.439Z,68.33
2023-04-18T14:28:38.805Z,68.43
2023-04-18T14:38:46.506Z,68.61
2023-04-18T14:48:53.725Z,69.10
2023-04-18T14:59:02.445Z,69.13
2023-04-18T15:09:09.958Z,68.97
2023-04-18T15:19:17.213Z,69.36
2023-04-18T15:29:22.810Z,69.78
2023-04-18T15:39:28.661Z,69.81
2023-04-18T15:49:33.985Z,70.26
2023-04-18T15:59:39.868Z,71.07
2023-04-18T16:09:45.585Z,71.75
2023-04-18T16:19:51.188Z,72.36
2023-04-18T16:29:56.738Z,73.08
2023-04-18T16:40:02.252Z,73.42
2023-04-18T16:50:07.705Z,74.33
2023-04-18T17:00:12.755Z,74.96
2023-04-18T17:10:18.477Z,74.93
2023-04-18T17:20:24.891Z,75.24
2023-04-18T17:30:30.335Z,75.80
2023-04-18T17:40:35.929Z,75.81
2023-04-18T17:50:41.591Z,74.66
2023-04-18T18:00:46.895Z,74.29
2023-04-18T18:10:52.581Z,74.24
2023-04-18T18:20:58.862Z,73.67
2023-04-18T18:31:04.651Z,73.07
2023-04-18T18:41:10.364Z,73.20
2023-04-18T18:51:15.628Z,72.81
2023-04-18T19:01:24.867Z,72.46
2023-04-18T19:11:30.049Z,72.56
2023-04-18T19:21:36.105Z,72.35
2023-04-18T19:31:41.752Z,72.31
2023-04-18T19:41:47.744Z,72.23
2023-04-18T19:51:53.340Z,72.04
2023-04-18T20:02:02.042Z,71.97
2023-04-18T20:12:09.315Z,72.21
2023-04-18T20:22:15.187Z,72.25
2023-04-18T20:32:21.197Z,72.39
2023-04-18T20:42:26.453Z,72.53
2023-04-18T20:52:32.443Z,72.40
2023-04-18T21:02:38.460Z,72.25
2023-04-18T21:12:44.404Z,72.23
2023-04-18T21:22:50.113Z,72.12
2023-04-18T21:32:55.934Z,72.15
2023-04-18T21:43:01.775Z,72.12
2023-04-18T21:53:07.575Z,72.11
2023-04-18T22:03:13.552Z,72.11
2023-04-18T22:13:19.209Z,72.77
2023-04-18T22:23:24.884Z,73.32
2023-04-18T22:33:30.601Z,72.95
2023-04-18T22:43:36.397Z,72.80
2023-04-18T22:53:41.927Z,72.71
2023-04-18T23:03:47.692Z,72.36
2023-04-18T23:13:53.314Z,72.38
2023-04-18T23:23:58.932Z,72.25
2023-04-18T23:34:04.529Z,72.21
2023-04-18T23:44:10.449Z,72.10
2023-04-18T23:54:16.157Z,72.17
